Time;durP1;ratioP1;P1;durP2;ratioP2;P2;SDS_P1;SDS_P2;PMS_P1;PMS_P2;Temp;Humidity;BMP_temperature;BMP_pressure;BME280_temperature;BME280_humidity;BME280_pressure;Samples;Min_cycle;Max_cycle;Signal;HPM_P1;HPM_P2
2022/05/24 00:02:19;;;;;;;12.90;5.25;;;;;;;21.46;53.22;100122.91;5031614;28;20021;-69
2022/05/24 00:04:44;;;;;;;10.00;5.07;;;;;;;22.10;52.02;100106.19;5030417;28;20032;-71
2022/05/24 00:07:10;;;;;;;10.15;4.75;;;;;;;21.51;54.07;100109.31;5030863;28;20071;-71
2022/05/24 00:09:35;;;;;;;7.82;4.70;;;;;;;22.11;53.21;100107.88;5031913;28;20499;-71
2022/05/24 00:12:01;;;;;;;11.48;5.10;;;;;;;22.17;52.42;100098.63;5030152;28;20030;-71
2022/05/24 00:17:10;;;;;;;13.18;5.03;;;;;;;22.30;51.33;100111.94;5033399;28;20090;-71
2022/05/24 00:19:36;;;;;;;10.13;4.03;;;;;;;22.18;51.89;100109.16;5028404;28;20021;-73
2022/05/24 00:22:01;;;;;;;12.68;4.75;;;;;;;22.49;50.56;100115.03;5033015;28;20523;-72
2022/05/24 00:24:27;;;;;;;9.70;4.55;;;;;;;23.04;49.26;100117.31;5030353;28;20021;-73
2022/05/24 00:26:53;;;;;;;13.70;6.10;;;;;;;21.93;51.52;100114.50;5029702;28;20021;-72
2022/05/24 00:29:18;;;;;;;10.60;6.57;;;;;;;21.95;52.32;100118.75;5030762;28;20099;-73
2022/05/24 00:31:43;;;;;;;18.80;9.38;;;;;;;20.94;56.03;100118.38;5031335;28;20026;-74
2022/05/24 00:34:09;;;;;;;23.85;9.73;;;;;;;21.38;53.11;100122.56;5063748;28;20063;-71
2022/05/24 00:36:35;;;;;;;20.02;11.60;;;;;;;21.73;53.27;100119.38;5031090;28;20051;-71
2022/05/24 00:39:00;;;;;;;27.02;11.85;;;;;;;22.61;50.43;100117.75;5029033;28;20025;-70
2022/05/24 00:41:28;;;;;;;20.52;11.98;;;;;;;22.75;49.46;100111.44;5031591;28;20033;-71
2022/05/24 00:44:03;;;;;;;18.60;10.88;;;;;;;21.39;53.21;100104.81;5032177;28;20052;-71
2022/05/24 00:46:41;;;;;;;28.48;10.27;;;;;;;22.53;49.41;100097.00;5031251;28;20025;-70
2022/05/24 00:49:13;;;;;;;24.13;10.20;;;;;;;21.66;50.98;100091.50;5030708;28;20083;-71
2022/05/24 00:51:47;;;;;;;19.98;10.23;;;;;;;21.29;53.12;100094.78;5031787;28;20087;-71
2022/05/24 00:54:13;;;;;;;19.25;10.35;;;;;;;22.32;49.06;100088.72;5031304;28;20363;-71
2022/05/24 00:57:04;;;;;;;20.98;9.13;;;;;;;21.92;49.88;100088.84;5030951;28;20104;-71
2022/05/24 00:59:51;;;;;;;16.98;8.93;;;;;;;21.92;50.40;100102.16;5010403;28;20036;-73
2022/05/24 01:02:17;;;;;;;17.33;8.30;;;;;;;21.96;50.33;100119.63;5031711;28;20545;-71
2022/05/24 01:04:43;;;;;;;14.48;8.48;;;;;;;21.01;52.93;100117.88;5031173;28;20148;-70
2022/05/24 01:07:08;;;;;;;18.58;8.00;;;;;;;21.42;51.91;100121.41;5032122;28;20104;-70
2022/05/24 01:09:47;;;;;;;15.20;6.97;;;;;;;20.99;54.90;100125.09;5030223;28;20101;-73
2022/05/24 01:12:26;;;;;;;14.32;6.60;;;;;;;20.91;51.69;100121.22;5032084;28;20093;-71
2022/05/24 01:14:55;;;;;;;17.52;6.28;;;;;;;21.04;53.75;100115.97;5028902;28;20029;-71
2022/05/24 01:17:20;;;;;;;13.32;5.72;;;;;;;20.99;51.86;100118.91;5030764;28;20474;-71
2022/05/24 01:19:47;;;;;;;9.20;4.18;;;;;;;21.89;48.94;100123.66;5029986;28;20029;-71
2022/05/24 01:22:34;;;;;;;9.45;4.47;;;;;;;22.38;47.87;100116.72;5031193;28;20014;-71
2022/05/24 01:25:32;;;;;;;11.32;4.55;;;;;;;21.93;48.97;100114.50;5030075;28;20261;-73
2022/05/24 01:28:00;;;;;;;11.68;4.53;;;;;;;21.51;49.95;100125.25;5023812;28;20049;-73
2022/05/24 01:30:25;;;;;;;8.57;5.40;;;;;;;20.64;52.75;100125.50;5030657;28;20025;-73
2022/05/24 01:38:21;;;;;;;14.23;5.28;;;;;;;22.08;47.68;100116.09;5031158;28;20120;-73
2022/05/24 01:40:49;;;;;;;13.20;4.88;;;;;;;20.92;50.50;100123.78;5032257;28;20481;-72
2022/05/24 01:43:17;;;;;;;10.43;4.47;;;;;;;20.98;49.23;100128.69;5030540;28;20477;-71
2022/05/24 01:45:50;;;;;;;8.10;5.40;;;;;;;21.43;47.93;100122.25;5030879;28;20025;-71
2022/05/24 01:48:20;;;;;;;12.60;5.88;;;;;;;21.98;47.90;100115.88;5030222;28;20405;-71
2022/05/24 01:50:47;;;;;;;15.07;5.05;;;;;;;21.75;48.26;100100.63;5031151;28;20156;-71
2022/05/24 01:53:20;;;;;;;10.38;6.40;;;;;;;21.59;47.51;100100.84;5021697;28;20022;-71
2022/05/24 01:55:51;;;;;;;17.65;6.32;;;;;;;21.09;49.45;100104.09;5021916;28;20037;-71
2022/05/24 01:58:18;;;;;;;13.73;5.72;;;;;;;21.08;48.55;100113.00;5042875;28;20119;-71
2022/05/24 02:00:48;;;;;;;18.17;5.88;;;;;;;21.88;46.91;100106.81;5036382;28;20033;-71
2022/05/24 02:03:14;;;;;;;11.00;5.82;;;;;;;21.66;49.41;100112.75;5034194;28;20034;-71
2022/05/24 02:05:41;;;;;;;15.05;6.35;;;;;;;20.88;51.43;100110.78;5035047;28;20035;-71
2022/05/24 02:08:09;;;;;;;12.10;6.57;;;;;;;22.00;48.95;100110.47;5033983;28;20069;-71
2022/05/24 02:10:57;;;;;;;14.88;6.80;;;;;;;21.14;50.97;100119.72;5033723;28;20032;-71
2022/05/24 02:13:30;;;;;;;16.02;7.00;;;;;;;21.08;51.33;100115.66;5034570;28;20049;-71
2022/05/24 02:15:59;;;;;;;14.10;6.72;;;;;;;20.85;52.42;100119.81;5030565;28;20026;-71
2022/05/24 02:18:26;;;;;;;12.75;6.10;;;;;;;20.96;51.71;100108.50;5046217;28;20116;-71
2022/05/24 02:20:52;;;;;;;19.20;6.43;;;;;;;21.78;49.56;100106.59;5015225;28;20097;-71
2022/05/24 02:23:18;;;;;;;12.23;5.88;;;;;;;21.94;49.69;100101.09;5038421;28;20108;-72
2022/05/24 02:25:58;;;;;;;13.30;6.47;;;;;;;20.27;53.41;100111.06;5033826;28;20025;-71
2022/05/24 02:28:29;;;;;;;19.77;6.78;;;;;;;21.33;51.16;100101.59;5034505;28;20478;-71
2022/05/24 02:31:07;;;;;;;13.07;6.88;;;;;;;21.37;51.48;100091.63;5034220;28;20029;-71
2022/05/24 02:33:32;;;;;;;14.07;6.30;;;;;;;21.14;52.25;100102.00;5035420;28;20034;-71
2022/05/24 02:35:58;;;;;;;13.82;7.03;;;;;;;20.84;51.99;100095.06;5033416;28;20421;-71
2022/05/24 02:38:24;;;;;;;11.25;7.25;;;;;;;20.22;53.49;100091.91;5033410;28;20084;-71
2022/05/24 02:43:33;;;;;;;15.70;7.40;;;;;;;20.71;52.19;100096.81;5033605;28;20160;-71
2022/05/24 02:45:59;;;;;;;16.80;8.10;;;;;;;21.38;50.79;100103.97;5032710;28;20037;-71
2022/05/24 02:48:25;;;;;;;19.17;8.40;;;;;;;21.06;52.31;100104.31;5035023;28;20443;-71
2022/05/24 02:50:50;;;;;;;13.57;8.13;;;;;;;21.68;49.95;100098.41;5033651;28;20588;-70
2022/05/24 02:53:15;;;;;;;13.70;7.07;;;;;;;21.09;51.77;100093.47;5032374;28;20049;-71
2022/05/24 02:55:41;;;;;;;19.65;7.95;;;;;;;21.47;50.40;100086.53;5034076;28;20029;-71
2022/05/24 02:58:07;;;;;;;12.57;7.55;;;;;;;21.26;51.27;100100.31;5032889;28;20107;-71
2022/05/24 03:00:32;;;;;;;17.48;7.47;;;;;;;20.03;55.10;100113.41;5024811;28;20401;-71
2022/05/24 03:02:58;;;;;;;16.52;8.70;;;;;;;20.70;53.37;100110.19;5033616;28;20036;-71
2022/05/24 03:05:24;;;;;;;19.58;8.60;;;;;;;20.89;51.82;100107.19;5033006;28;20487;-71
2022/05/24 03:10:34;;;;;;;15.05;8.10;;;;;;;21.71;49.34;100110.66;5034323;28;20056;-71
2022/05/24 03:15:46;;;;;;;17.23;7.70;;;;;;;21.61;50.16;100093.59;5032936;28;20098;-71
2022/05/24 03:18:13;;;;;;;19.67;8.05;;;;;;;21.39;51.08;100103.03;5034060;28;20051;-71
2022/05/24 03:20:39;;;;;;;19.30;8.15;;;;;;;20.71;52.83;100110.06;5065125;28;20021;-71
2022/05/24 03:23:04;;;;;;;17.60;8.73;;;;;;;20.73;53.00;100113.50;5034967;28;20537;-71
2022/05/24 03:25:32;;;;;;;20.38;8.40;;;;;;;21.48;50.61;100114.84;5037996;28;20049;-71
2022/05/24 03:27:58;;;;;;;16.60;7.18;;;;;;;21.35;51.09;100110.34;5032074;28;20045;-71
2022/05/24 03:30:24;;;;;;;19.42;8.00;;;;;;;21.63;49.78;100120.97;5031362;28;20401;-71
2022/05/24 03:32:50;;;;;;;12.32;7.70;;;;;;;20.76;51.53;100139.84;5032200;28;20021;-71
2022/05/24 03:35:16;;;;;;;17.65;7.22;;;;;;;21.66;49.67;100134.03;5033303;28;20481;-71
2022/05/24 03:37:41;;;;;;;15.48;7.30;;;;;;;21.94;47.84;100132.16;5033101;28;20037;-72
2022/05/24 03:40:08;;;;;;;16.90;7.97;;;;;;;20.66;52.63;100144.00;5040062;28;20029;-71
2022/05/24 03:42:35;;;;;;;12.57;7.00;;;;;;;20.46;54.55;100142.63;5051513;28;20024;-71
2022/05/24 03:45:00;;;;;;;14.00;7.35;;;;;;;20.51;53.61;100152.00;5048104;28;20025;-71
2022/05/24 03:47:26;;;;;;;13.18;6.72;;;;;;;19.53;56.56;100147.28;5032036;28;20033;-71
2022/05/24 03:49:52;;;;;;;17.50;7.30;;;;;;;20.19;55.65;100159.28;5031216;28;20370;-71
2022/05/24 03:52:17;;;;;;;14.98;8.38;;;;;;;20.43;54.74;100164.00;5033216;28;20429;-71
2022/05/24 03:54:42;;;;;;;19.23;8.15;;;;;;;20.14;55.26;100178.13;5031955;28;20420;-71
2022/05/24 03:59:52;;;;;;;17.63;9.07;;;;;;;19.88;55.80;100185.00;5047734;28;20044;-70
2022/05/24 04:02:17;;;;;;;22.08;8.65;;;;;;;19.57;57.83;100185.91;5032483;28;20022;-71
2022/05/24 04:04:43;;;;;;;16.40;8.68;;;;;;;19.59;56.75;100189.31;5032655;28;20508;-71
2022/05/24 04:07:08;;;;;;;22.48;9.30;;;;;;;19.86;56.12;100191.34;5031051;28;20037;-71
2022/05/24 04:09:34;;;;;;;15.25;8.13;;;;;;;20.27;54.52;100191.50;5031794;28;20033;-70
2022/05/24 04:12:00;;;;;;;14.63;8.50;;;;;;;20.79;51.28;100181.28;5032674;28;20037;-71
2022/05/24 04:14:29;;;;;;;20.48;8.80;;;;;;;21.26;50.19;100179.19;5037673;28;20093;-71
2022/05/24 04:16:55;;;;;;;14.02;7.95;;;;;;;20.16;53.19;100184.19;5031310;28;20381;-71
2022/05/24 04:19:20;;;;;;;18.45;7.53;;;;;;;20.40;52.71;100170.38;5031117;28;20040;-71
2022/05/24 04:21:45;;;;;;;9.20;6.30;;;;;;;20.06;54.06;100177.75;5028058;28;20067;-71
2022/05/24 04:24:11;;;;;;;10.25;5.05;;;;;;;19.08;55.76;100173.66;5023844;28;20426;-72
2022/05/24 04:26:36;;;;;;;22.95;5.22;;;;;;;20.56;51.99;100170.28;5028257;28;20470;-71
2022/05/24 04:29:02;;;;;;;8.73;4.75;;;;;;;20.74;49.44;100178.91;5011434;28;20056;-70
2022/05/24 04:31:27;;;;;;;10.80;4.10;;;;;;;19.77;54.12;100182.06;5030380;28;20022;-71
2022/05/24 04:33:53;;;;;;;12.93;4.18;;;;;;;20.62;50.35;100184.97;5030101;28;20036;-71
2022/05/24 04:36:18;;;;;;;9.95;4.00;;;;;;;20.43;51.59;100195.84;5032564;28;20033;-73
2022/05/24 04:38:43;;;;;;;7.45;3.60;;;;;;;20.77;49.98;100188.50;5029854;28;20033;-71
2022/05/24 04:43:52;;;;;;;13.05;4.00;;;;;;;20.63;50.04;100191.97;5032628;28;20458;-71
2022/05/24 04:46:18;;;;;;;10.50;4.18;;;;;;;20.72;50.79;100188.78;5060929;28;20029;-71
2022/05/24 04:48:43;;;;;;;19.08;4.75;;;;;;;21.16;49.52;100173.63;5031434;28;20029;-71
2022/05/24 04:51:09;;;;;;;12.18;4.60;;;;;;;20.24;51.52;100172.28;5031048;28;20091;-72
2022/05/24 04:53:35;;;;;;;11.25;4.32;;;;;;;19.81;53.10;100189.81;5031451;28;20035;-71
2022/05/24 04:56:00;;;;;;;10.52;4.53;;;;;;;20.56;51.01;100182.69;5031398;28;20041;-71
2022/05/24 04:58:25;;;;;;;10.48;4.32;;;;;;;21.25;49.01;100188.94;5031696;28;20034;-71
2022/05/24 05:00:51;;;;;;;14.02;4.45;;;;;;;20.78;49.83;100204.31;5030883;28;20037;-71
2022/05/24 05:03:18;;;;;;;10.50;4.18;;;;;;;20.84;49.83;100196.00;5030862;28;20028;-71
2022/05/24 05:05:44;;;;;;;8.90;3.80;;;;;;;20.43;51.35;100202.03;5031284;28;20033;-70
2022/05/24 05:08:10;;;;;;;12.23;3.97;;;;;;;20.73;50.04;100209.09;5031808;28;20037;-71
2022/05/24 05:10:36;;;;;;;7.40;3.45;;;;;;;19.91;51.77;100218.44;5032095;28;20512;-71
2022/05/24 05:13:03;;;;;;;10.02;3.05;;;;;;;19.58;53.60;100219.44;5028429;28;20095;-71
2022/05/24 05:15:28;;;;;;;8.65;3.40;;;;;;;20.03;52.91;100220.38;5028129;28;20065;-71
2022/05/24 05:18:09;;;;;;;8.18;3.83;;;;;;;19.65;53.40;100231.38;5032591;28;20064;-71
2022/05/24 05:20:39;;;;;;;9.82;3.70;;;;;;;20.02;51.68;100233.69;5031289;28;20030;-71
2022/05/24 05:23:14;;;;;;;7.53;3.28;;;;;;;19.48;55.99;100230.53;5051929;28;20017;-71
2022/05/24 05:25:47;;;;;;;10.02;3.85;;;;;;;18.98;55.96;100234.22;5031634;28;20033;-71
2022/05/24 05:28:13;;;;;;;10.07;3.58;;;;;;;19.81;53.83;100232.22;5031248;28;20174;-71
2022/05/24 05:33:22;;;;;;;16.02;4.20;;;;;;;19.17;54.93;100246.47;5035992;28;20091;-70
2022/05/24 05:35:49;;;;;;;10.45;4.18;;;;;;;19.26;55.45;100251.22;5035193;28;20022;-71
2022/05/24 05:38:14;;;;;;;9.50;3.08;;;;;;;19.11;54.99;100245.84;5035868;28;20078;-70
2022/05/24 05:40:41;;;;;;;12.57;3.60;;;;;;;19.15;54.83;100247.41;5054470;28;20431;-71
2022/05/24 05:43:07;;;;;;;10.77;3.47;;;;;;;20.48;51.03;100247.75;5043655;28;20083;-70
2022/05/24 05:45:32;;;;;;;11.68;5.05;;;;;;;19.79;52.10;100254.44;5036405;28;20025;-71
2022/05/24 05:47:58;;;;;;;10.90;4.00;;;;;;;21.01;49.66;100252.50;5033633;28;20071;-71
2022/05/24 05:50:23;;;;;;;10.95;4.47;;;;;;;19.90;51.68;100253.84;5035722;28;20021;-71
2022/05/24 05:52:50;;;;;;;8.77;4.53;;;;;;;19.72;53.40;100264.53;5034046;28;20064;-71
2022/05/24 05:55:15;;;;;;;8.65;4.20;;;;;;;19.07;57.14;100268.16;5034453;28;20453;-71
2022/05/24 05:57:41;;;;;;;11.43;4.53;;;;;;;20.46;52.62;100262.91;5054066;28;20077;-71
2022/05/24 06:00:08;;;;;;;9.63;4.10;;;;;;;20.54;51.00;100277.50;5036158;28;20029;-71
2022/05/24 06:02:34;;;;;;;10.00;4.43;;;;;;;21.36;47.98;100265.34;5028642;28;20010;-71
2022/05/24 06:05:00;;;;;;;8.50;4.32;;;;;;;21.58;46.76;100274.63;5015615;28;20033;-71
2022/05/24 06:07:25;;;;;;;7.50;4.15;;;;;;;20.94;49.48;100270.63;5015462;28;20148;-72
2022/05/24 06:09:51;;;;;;;12.98;4.40;;;;;;;21.54;47.18;100281.09;5030128;28;20164;-71
2022/05/24 06:12:17;;;;;;;10.60;4.40;;;;;;;19.91;52.14;100268.84;5031890;28;20029;-71
2022/05/24 06:14:42;;;;;;;8.70;4.25;;;;;;;19.85;52.29;100275.31;5036202;28;20132;-71
2022/05/24 06:17:07;;;;;;;9.70;4.68;;;;;;;19.96;51.51;100286.19;5068969;28;20025;-71
2022/05/24 06:19:33;;;;;;;9.93;4.70;;;;;;;20.65;49.76;100281.22;5055088;28;20031;-70
2022/05/24 06:21:58;;;;;;;8.63;4.93;;;;;;;19.64;51.93;100295.94;5042569;28;20032;-71
2022/05/24 06:24:23;;;;;;;13.15;5.32;;;;;;;21.61;47.18;100287.72;5033743;28;20033;-71
2022/05/24 06:26:50;;;;;;;11.32;3.85;;;;;;;20.77;48.53;100287.63;5033433;28;20084;-72
2022/05/24 06:29:16;;;;;;;12.15;3.90;;;;;;;21.10;47.65;100297.09;5033595;28;20129;-72
2022/05/24 06:31:44;;;;;;;10.25;4.13;;;;;;;21.59;47.31;100297.63;5024297;28;20097;-71
2022/05/24 06:34:10;;;;;;;12.80;4.25;;;;;;;21.85;46.42;100288.75;5031227;28;20481;-70
2022/05/24 06:36:36;;;;;;;5.63;3.20;;;;;;;22.43;44.95;100299.16;5027255;28;20043;-71
2022/05/24 06:39:01;;;;;;;5.60;2.70;;;;;;;22.22;45.67;100295.28;5032816;28;20017;-71
2022/05/24 06:41:26;;;;;;;9.15;3.20;;;;;;;22.50;44.36;100295.13;5031652;28;20029;-71
2022/05/24 06:43:52;;;;;;;5.35;2.47;;;;;;;21.25;47.32;100310.34;5032210;28;20037;-70
2022/05/24 06:46:18;;;;;;;5.43;2.70;;;;;;;20.31;48.47;100308.94;5031865;28;20620;-71
2022/05/24 06:48:44;;;;;;;8.68;2.88;;;;;;;21.26;47.02;100317.38;5029916;28;20385;-71
2022/05/24 06:51:12;;;;;;;4.00;2.38;;;;;;;23.49;42.63;100311.34;5032603;28;20029;-71
2022/05/24 06:53:42;;;;;;;5.93;2.95;;;;;;;25.15;38.21;100310.44;5030667;28;20029;-71
2022/05/24 06:56:08;;;;;;;4.95;2.22;;;;;;;25.17;37.70;100320.03;5027221;28;20029;-71
2022/05/24 06:58:34;;;;;;;6.72;2.17;;;;;;;24.41;39.58;100322.34;5027562;28;20021;-72
2022/05/24 07:03:45;;;;;;;2.78;1.88;;;;;;;22.93;41.41;100333.03;5036900;28;20080;-71
2022/05/24 07:06:12;;;;;;;3.03;1.80;;;;;;;21.23;44.40;100350.31;5052384;28;20469;-72
2022/05/24 07:08:48;;;;;;;6.30;2.28;;;;;;;22.52;43.35;100335.81;5035154;28;20025;-71
2022/05/24 07:11:15;;;;;;;2.55;2.30;;;;;;;21.25;45.47;100347.56;5031821;28;20116;-71
2022/05/24 07:13:40;;;;;;;4.80;2.63;;;;;;;22.55;44.30;100349.88;5031838;28;20081;-72
2022/05/24 07:16:07;;;;;;;7.72;3.20;;;;;;;22.23;45.42;100350.19;5032605;28;20087;-72
2022/05/24 07:18:33;;;;;;;4.70;2.88;;;;;;;21.01;47.49;100351.66;5031707;28;20396;-71
2022/05/24 07:20:59;;;;;;;9.77;2.72;;;;;;;20.93;47.95;100369.84;5058053;28;20489;-71
2022/05/24 07:23:24;;;;;;;5.45;2.38;;;;;;;21.16;48.40;100371.09;5011917;28;20022;-72
2022/05/24 07:25:50;;;;;;;4.55;3.17;;;;;;;20.51;49.93;100377.63;5017117;28;20043;-71
2022/05/24 07:28:17;;;;;;;2.38;2.17;;;;;;;21.51;48.04;100381.34;5016031;28;1111963;-72
2022/05/24 07:30:42;;;;;;;3.58;1.77;;;;;;;21.88;47.08;100382.63;5035116;28;20438;-72
2022/05/24 07:33:08;;;;;;;5.07;1.63;;;;;;;21.51;46.72;100385.78;5034222;28;20118;-72
2022/05/24 07:35:34;;;;;;;7.47;1.50;;;;;;;20.67;48.81;100396.13;5033424;28;20037;-71
2022/05/24 07:38:00;;;;;;;2.95;1.50;;;;;;;19.95;52.15;100389.72;5027264;28;20141;-71
2022/05/24 07:46:00;;;;;;;4.50;1.80;;;;;;;20.75;49.48;100402.84;5033281;28;20148;-71
2022/05/24 07:48:26;;;;;;;4.07;1.60;;;;;;;20.81;50.87;100398.03;5031661;28;20025;-71
2022/05/24 07:50:51;;;;;;;2.33;1.90;;;;;;;20.47;51.40;100402.63;5032834;28;20029;-71
2022/05/24 07:53:17;;;;;;;5.57;1.60;;;;;;;20.23;51.74;100401.41;5029080;28;20537;-71
2022/05/24 07:55:44;;;;;;;3.45;1.88;;;;;;;20.83;49.39;100398.78;5032037;28;20033;-71
2022/05/24 07:58:10;;;;;;;2.10;1.58;;;;;;;21.40;48.26;100405.06;5033672;28;20025;-72
2022/05/24 08:00:35;;;;;;;4.97;2.13;;;;;;;21.69;46.48;100403.28;5042313;28;20039;-71
2022/05/24 08:03:01;;;;;;;4.22;1.55;;;;;;;21.29;47.56;100402.25;5034933;28;20033;-71
2022/05/24 08:05:29;;;;;;;3.63;1.50;;;;;;;20.66;48.66;100425.44;5029975;28;20034;-71
2022/05/24 08:07:55;;;;;;;1.88;1.05;;;;;;;21.28;47.23;100411.16;5032973;28;20032;-71
2022/05/24 08:10:20;;;;;;;5.63;1.48;;;;;;;21.97;45.28;100416.63;5064153;28;20025;-72
2022/05/24 08:12:45;;;;;;;8.10;1.20;;;;;;;21.37;45.69;100415.91;5029413;28;20036;-72
2022/05/24 08:15:13;;;;;;;2.88;1.15;;;;;;;21.72;45.02;100420.88;5032324;28;20044;-71
2022/05/24 08:17:38;;;;;;;2.05;0.88;;;;;;;24.18;41.66;100413.06;5032110;28;20025;-72
2022/05/24 08:20:06;;;;;;;1.45;0.73;;;;;;;24.21;40.13;100415.50;5031540;28;20390;-71
2022/05/24 08:22:31;;;;;;;1.25;0.82;;;;;;;24.95;38.72;100413.59;5032147;28;20029;-72
2022/05/24 08:24:56;;;;;;;5.57;0.82;;;;;;;24.07;39.41;100422.81;5030880;28;20047;-70
2022/05/24 08:27:22;;;;;;;0.88;0.70;;;;;;;23.47;40.91;100428.78;5032418;28;20060;-71
2022/05/24 08:29:47;;;;;;;1.33;0.63;;;;;;;20.99;46.30;100443.88;5032650;28;20035;-71
2022/05/24 08:32:13;;;;;;;1.85;0.77;;;;;;;20.13;48.39;100457.63;5032395;28;20049;-71
2022/05/24 08:34:38;;;;;;;0.60;0.43;;;;;;;19.98;49.30;100469.94;5032443;28;20040;-72
2022/05/24 08:37:05;;;;;;;1.65;0.50;;;;;;;19.91;50.19;100470.38;5030229;28;20034;-70
2022/05/24 08:39:30;;;;;;;1.17;0.45;;;;;;;20.04;52.27;100470.56;5032236;28;20026;-72
2022/05/24 08:42:31;;;;;;;1.98;0.60;;;;;;;19.28;55.89;100466.63;5031282;28;20032;-71
2022/05/24 08:50:50;;;;;;;4.60;1.00;;;;;;;19.87;55.75;100485.59;5029268;28;19939;-71
2022/05/24 08:53:24;;;;;;;1.30;1.02;;;;;;;20.86;51.83;100484.53;5031082;28;20033;-72
2022/05/24 08:55:50;;;;;;;0.88;0.88;;;;;;;21.46;50.99;100484.47;5032293;28;20033;-71
2022/05/24 08:58:28;;;;;;;4.25;0.98;;;;;;;23.46;47.20;100480.41;5030296;28;20028;-71
2022/05/24 09:00:54;;;;;;;1.35;1.00;;;;;;;24.72;43.47;100485.69;5016698;28;20053;-71
2022/05/24 09:03:24;;;;;;;1.83;0.88;;;;;;;23.11;43.51;100497.03;5022346;28;20408;-71
2022/05/24 09:05:57;;;;;;;2.53;0.90;;;;;;;26.89;39.15;100491.75;5031470;28;20056;-71
2022/05/24 09:08:29;;;;;;;3.00;1.20;;;;;;;26.49;38.10;100494.19;5032139;28;20029;-71
2022/05/24 09:11:33;;;;;;;6.90;1.10;;;;;;;26.03;37.38;100499.66;5030134;28;20033;-71
2022/05/24 09:14:17;;;;;;;3.05;0.90;;;;;;;27.48;35.45;100497.53;5031851;28;20124;-71
2022/05/24 09:16:52;;;;;;;5.40;0.85;;;;;;;26.61;34.86;100508.41;5030894;28;20017;-72
2022/05/24 09:19:23;;;;;;;2.05;1.08;;;;;;;24.70;38.07;100514.34;5030766;28;20052;-71
2022/05/24 09:21:52;;;;;;;4.65;0.75;;;;;;;23.93;39.21;100531.41;5011116;28;20026;-71
2022/05/24 09:24:41;;;;;;;1.95;0.70;;;;;;;20.36;47.15;100551.03;5010829;28;20036;-71
2022/05/24 09:27:16;;;;;;;3.90;1.38;;;;;;;20.20;47.92;100566.09;5010199;28;20025;-71
2022/05/24 09:30:02;;;;;;;2.55;0.90;;;;;;;19.85;51.95;100572.31;5015679;28;20056;-71
2022/05/24 09:32:48;;;;;;;2.85;1.00;;;;;;;19.91;53.73;100565.88;5031653;28;20064;-70
2022/05/24 09:35:16;;;;;;;3.03;0.88;;;;;;;19.75;54.81;100577.22;5032127;28;20059;-70
2022/05/24 09:38:03;;;;;;;1.10;0.88;;;;;;;18.74;55.94;100589.31;5042592;28;20179;-70
2022/05/24 09:40:30;;;;;;;1.45;0.98;;;;;;;19.67;54.42;100582.06;5040300;28;20037;-71
2022/05/24 09:42:55;;;;;;;1.30;1.00;;;;;;;19.35;54.95;100583.75;5029676;28;20014;-70
2022/05/24 09:45:26;;;;;;;2.45;1.00;;;;;;;20.10;53.41;100582.50;5063619;28;20028;-71
2022/05/24 09:47:55;;;;;;;3.10;1.10;;;;;;;21.64;50.92;100577.41;5030978;28;20053;-71
2022/05/24 09:50:39;;;;;;;4.80;1.35;;;;;;;21.59;49.71;100576.81;5031238;28;20477;-71
2022/05/24 09:53:17;;;;;;;6.00;2.70;;;;;;;21.77;49.98;100575.69;5031657;28;20026;-71
2022/05/24 09:55:47;;;;;;;4.05;1.52;;;;;;;21.27;51.07;100576.91;5011043;28;20013;-71
2022/05/24 09:58:20;;;;;;;4.68;1.70;;;;;;;21.77;49.44;100583.66;5011965;28;20509;-70
2022/05/24 10:01:09;;;;;;;6.05;2.17;;;;;;;22.15;49.21;100587.59;5011789;28;20064;-71
2022/05/24 10:03:42;;;;;;;4.80;1.40;;;;;;;22.32;47.84;100583.84;5011898;28;20108;-70
2022/05/24 10:06:08;;;;;;;2.58;1.40;;;;;;;20.80;50.78;100608.78;5025996;28;20032;-71
2022/05/24 10:08:45;;;;;;;8.55;1.60;;;;;;;20.27;50.16;100612.56;5029403;28;20108;-70
2022/05/24 10:11:49;;;;;;;3.85;1.63;;;;;;;21.51;49.21;100610.00;5058821;28;20029;-70
2022/05/24 10:15:00;;;;;;;5.43;1.52;;;;;;;22.04;48.08;100601.56;5030020;28;20046;-70
2022/05/24 10:17:59;;;;;;;5.65;1.55;;;;;;;22.62;46.31;100606.84;5034721;28;20017;-70
2022/05/24 10:20:38;;;;;;;2.78;1.30;;;;;;;23.21;45.47;100610.09;5032376;28;20056;-71
2022/05/24 10:23:24;;;;;;;3.85;1.52;;;;;;;22.15;44.57;100622.19;5011114;28;20221;-70
2022/05/24 10:26:06;;;;;;;3.17;1.30;;;;;;;21.50;46.97;100624.25;5021633;28;20029;-71
2022/05/24 10:28:52;;;;;;;2.85;1.60;;;;;;;21.23;47.31;100636.50;5043254;28;20072;-70
2022/05/24 10:31:31;;;;;;;3.35;1.30;;;;;;;21.77;45.53;100628.88;5012666;28;20042;-70
2022/05/24 10:39:46;;;;;;;2.08;0.80;;;;;;;23.03;40.59;100624.63;5033930;28;20041;-69
2022/05/24 10:42:30;;;;;;;4.05;1.30;;;;;;;25.21;40.37;100623.69;5052828;28;20029;-70
2022/05/24 10:45:04;;;;;;;3.42;1.25;;;;;;;25.26;39.24;100627.84;5030872;28;20042;-70
2022/05/24 10:47:59;;;;;;;3.05;1.00;;;;;;;26.04;37.95;100629.06;5032583;28;20021;-70
2022/05/24 10:50:33;;;;;;;3.80;0.80;;;;;;;22.17;40.10;100642.44;5034031;28;20026;-71
2022/05/24 10:53:11;;;;;;;1.10;0.68;;;;;;;22.40;41.49;100640.16;5033012;28;20034;-72
2022/05/24 10:56:00;;;;;;;2.67;0.90;;;;;;;21.73;42.33;100651.28;5034120;28;20048;-72
2022/05/24 10:58:29;;;;;;;2.92;0.90;;;;;;;21.57;42.88;100648.72;5033859;28;20068;-72
2022/05/24 11:01:22;;;;;;;1.85;0.93;;;;;;;21.82;41.87;100653.41;5035679;28;20062;-72
2022/05/24 11:03:49;;;;;;;;;;;;;;;24.45;37.60;100647.00;5030309;28;20036;-72
2022/05/24 11:06:34;;;;;;;2.22;0.80;;;;;;;24.59;36.43;100650.50;5031402;28;19962;-72
2022/05/24 11:09:09;;;;;;;1.30;0.65;;;;;;;24.29;37.01;100641.91;5032428;28;20029;-71
2022/05/24 11:11:41;;;;;;;2.03;0.90;;;;;;;23.49;38.18;100650.94;5031247;28;20021;-71
2022/05/24 11:14:28;;;;;;;2.65;0.90;;;;;;;22.88;39.84;100645.13;5033660;28;20060;-70
2022/05/24 11:16:56;;;;;;;3.75;0.80;;;;;;;23.98;38.52;100652.06;5031738;28;20037;-72
2022/05/24 11:19:31;;;;;;;2.78;0.80;;;;;;;24.44;36.39;100656.00;5025928;28;20481;-72
2022/05/24 11:22:03;;;;;;;1.35;0.80;;;;;;;24.27;37.99;100656.34;5032550;28;20432;-72
2022/05/24 11:24:47;;;;;;;2.25;1.10;;;;;;;23.67;37.27;100658.63;5031560;28;20037;-72
2022/05/24 11:27:26;;;;;;;2.80;0.90;;;;;;;22.20;40.45;100671.50;5029579;28;20029;-72
2022/05/24 11:29:57;;;;;;;1.85;0.70;;;;;;;22.92;40.19;100667.09;5037236;28;20025;-74
2022/05/24 11:32:50;;;;;;;3.55;1.00;;;;;;;23.16;40.33;100675.34;5048296;28;20036;-73
2022/05/24 11:35:19;;;;;;;1.73;1.05;;;;;;;24.04;40.17;100680.13;5045060;28;20127;-72
2022/05/24 11:37:47;;;;;;;5.72;1.15;;;;;;;25.18;37.79;100680.06;5045406;28;20037;-73
2022/05/24 11:40:30;;;;;;;3.00;0.90;;;;;;;26.44;35.22;100667.91;5012993;28;20473;-73
2022/05/24 11:42:59;;;;;;;1.73;0.70;;;;;;;28.08;34.02;100663.31;5013231;28;20490;-73
2022/05/24 11:45:34;;;;;;;4.03;1.27;;;;;;;27.80;33.83;100673.72;5022769;28;20026;-73
2022/05/24 11:48:01;;;;;;;3.92;1.00;;;;;;;28.59;30.66;100664.22;5037235;28;20076;-73
2022/05/24 11:50:41;;;;;;;2.70;0.90;;;;;;;26.36;33.27;100687.25;5032851;28;20504;-73
2022/05/24 11:53:35;;;;;;;2.05;0.70;;;;;;;24.73;34.45;100674.47;5039004;28;20112;-73
2022/05/24 11:56:01;;;;;;;2.47;0.70;;;;;;;25.51;34.41;100681.22;5049291;28;20048;-73
2022/05/24 11:58:29;;;;;;;1.23;0.70;;;;;;;25.04;35.67;100689.09;5052278;28;20029;-74
2022/05/24 12:01:02;;;;;;;1.92;0.68;;;;;;;25.40;35.25;100684.69;5030182;28;20489;-73
2022/05/24 12:09:53;;;;;;;1.45;0.40;;;;;;;25.31;32.04;100703.22;5027628;28;20486;-73
2022/05/24 12:12:32;;;;;;;1.60;0.43;;;;;;;25.44;30.94;100698.69;5031069;28;20018;-73
2022/05/24 12:15:16;;;;;;;1.45;0.60;;;;;;;26.06;30.82;100702.06;5031493;28;20048;-74
2022/05/24 12:17:43;;;;;;;0.68;0.30;;;;;;;23.87;32.98;100726.66;5028248;28;20021;-74
2022/05/24 12:20:33;;;;;;;0.68;0.40;;;;;;;23.58;34.78;100717.94;5026444;28;20079;-73
2022/05/24 12:23:04;;;;;;;2.72;0.60;;;;;;;24.25;33.72;100722.31;5034074;28;20151;-73
2022/05/24 12:25:48;;;;;;;1.23;0.32;;;;;;;24.44;34.82;100728.13;5031048;28;20033;-73
2022/05/24 12:28:14;;;;;;;2.45;0.70;;;;;;;24.71;33.11;100719.13;5030340;28;20596;-73